createdAt,value
2023-01-28T00:00:54.968Z,6.05
2023-01-28T00:03:22.316Z,7.20
2023-01-28T00:05:49.528Z,18.42
2023-01-28T00:08:16.868Z,23.13
2023-01-28T00:10:44.205Z,7.47
2023-01-28T00:13:14.785Z,7.63
2023-01-28T00:15:42.453Z,6.63
2023-01-28T00:18:09.794Z,6.72
2023-01-28T00:20:37.155Z,7.13
2023-01-28T00:23:04.448Z,6.60
2023-01-28T00:25:31.731Z,7.20
2023-01-28T00:27:58.985Z,7.30
2023-01-28T00:30:26.239Z,6.55
2023-01-28T00:32:54.903Z,7.65
2023-01-28T00:35:22.135Z,6.33
2023-01-28T00:37:49.430Z,6.60
2023-01-28T00:40:16.715Z,6.40
2023-01-28T00:42:44.027Z,7.38
2023-01-28T00:45:11.538Z,6.78
2023-01-28T00:47:38.885Z,6.83
2023-01-28T00:50:06.406Z,9.02
2023-01-28T00:52:33.614Z,7.80
2023-01-28T00:55:01.033Z,6.60
2023-01-28T00:57:28.285Z,7.32
2023-01-28T00:59:55.678Z,5.90
2023-01-28T01:02:23.437Z,6.65
2023-01-28T01:04:59.851Z,7.13
2023-01-28T01:07:43.984Z,7.45
2023-01-28T01:10:12.238Z,7.32
2023-01-28T01:12:39.590Z,6.63
2023-01-28T01:15:10.288Z,6.82
2023-01-28T01:17:38.593Z,7.47
2023-01-28T01:20:08.266Z,7.18
2023-01-28T01:22:36.302Z,7.47
2023-01-28T01:25:04.157Z,6.97
2023-01-28T01:27:31.843Z,6.78
2023-01-28T01:29:59.361Z,6.80
2023-01-28T01:32:30.510Z,6.32
2023-01-28T01:34:57.827Z,7.05
2023-01-28T01:37:25.996Z,7.07
2023-01-28T01:39:53.469Z,7.78
2023-01-28T01:42:21.675Z,7.20
2023-01-28T01:44:50.478Z,6.95
2023-01-28T01:47:18.844Z,8.23
2023-01-28T01:49:46.460Z,8.17
2023-01-28T01:52:21.894Z,8.45
2023-01-28T01:54:51.067Z,8.60
2023-01-28T01:57:22.288Z,7.38
2023-01-28T01:59:49.758Z,8.18
2023-01-28T02:02:17.403Z,7.33
2023-01-28T02:04:45.380Z,7.90
2023-01-28T02:07:17.643Z,7.30
2023-01-28T02:09:44.943Z,7.68
2023-01-28T02:12:12.204Z,9.40
2023-01-28T02:14:41.951Z,6.77
2023-01-28T02:17:09.562Z,7.38
2023-01-28T02:19:51.347Z,7.72
2023-01-28T02:22:34.286Z,8.07
2023-01-28T02:25:24.724Z,7.22
2023-01-28T02:28:12.238Z,7.30
2023-01-28T02:31:02.869Z,8.60
2023-01-28T02:33:50.460Z,7.22
2023-01-28T02:36:17.675Z,7.22
2023-01-28T02:38:50.687Z,7.97
2023-01-28T02:41:38.251Z,7.50
2023-01-28T02:44:05.942Z,7.28
2023-01-28T02:46:51.778Z,7.85
2023-01-28T02:49:21.657Z,7.68
2023-01-28T02:51:52.033Z,8.10
2023-01-28T02:54:39.091Z,7.00
2023-01-28T02:57:15.237Z,7.22
2023-01-28T03:00:01.312Z,7.82
2023-01-28T03:02:33.669Z,6.43
2023-01-28T03:05:10.938Z,7.68
2023-01-28T03:07:39.335Z,6.67
2023-01-28T03:10:08.406Z,7.22
2023-01-28T03:12:56.027Z,7.97
2023-01-28T03:15:47.702Z,7.72
2023-01-28T03:18:39.589Z,6.80
2023-01-28T03:21:37.116Z,7.23
2023-01-28T03:24:26.709Z,7.57
2023-01-28T03:27:19.901Z,7.90
2023-01-28T03:30:13.946Z,7.57
2023-01-28T03:33:00.680Z,7.97
2023-01-28T03:35:49.379Z,6.80
2023-01-28T03:38:22.914Z,7.03
2023-01-28T03:40:52.781Z,7.05
2023-01-28T03:43:20.567Z,6.97
2023-01-28T03:45:51.395Z,8.20
2023-01-28T03:48:23.214Z,6.40
2023-01-28T03:50:51.236Z,7.30
2023-01-28T03:53:19.073Z,7.22
2023-01-28T03:55:48.159Z,7.13
2023-01-28T03:58:15.877Z,7.65
2023-01-28T04:00:43.661Z,6.93
2023-01-28T04:03:16.879Z,7.70
2023-01-28T04:06:01.631Z,7.43
2023-01-28T04:08:48.393Z,7.78
2023-01-28T04:11:32.984Z,7.78
2023-01-28T04:14:03.180Z,7.43
2023-01-28T04:16:55.032Z,7.47
2023-01-28T04:19:24.724Z,7.50
2023-01-28T04:21:56.767Z,7.18
2023-01-28T04:24:25.293Z,7.88
2023-01-28T04:26:54.852Z,6.37
2023-01-28T04:29:22.897Z,6.75
2023-01-28T04:31:52.389Z,7.22
2023-01-28T04:34:57.733Z,6.95
2023-01-28T04:37:39.479Z,7.38
2023-01-28T04:40:13.731Z,7.80
2023-01-28T04:42:54.038Z,7.63
2023-01-28T04:45:31.125Z,7.75
2023-01-28T04:48:34.925Z,6.93
2023-01-28T04:51:27.977Z,7.75
2023-01-28T04:54:10.540Z,6.60
2023-01-28T04:56:38.447Z,7.70
2023-01-28T04:59:05.777Z,8.10
2023-01-28T05:01:34.320Z,7.32
2023-01-28T05:04:05.521Z,7.43
2023-01-28T05:06:34.954Z,6.70
2023-01-28T05:09:07.483Z,6.85
2023-01-28T05:11:35.247Z,7.43
2023-01-28T05:14:05.345Z,12.40
2023-01-28T05:16:40.264Z,8.55
2023-01-28T05:19:07.880Z,6.63
2023-01-28T05:21:39.316Z,7.95
2023-01-28T05:24:13.334Z,7.50
2023-01-28T05:26:40.768Z,7.63
2023-01-28T05:29:08.214Z,7.03
2023-01-28T05:31:35.625Z,7.40
2023-01-28T05:34:03.021Z,6.60
2023-01-28T05:36:30.365Z,13.10
2023-01-28T05:39:00.162Z,10.88
2023-01-28T05:41:27.482Z,8.35
2023-01-28T05:44:00.310Z,7.83
2023-01-28T05:46:47.803Z,7.80
2023-01-28T05:49:37.923Z,8.00
2023-01-28T05:52:27.819Z,6.28
2023-01-28T05:54:55.201Z,7.20
2023-01-28T05:57:22.845Z,7.07
2023-01-28T05:59:51.025Z,6.70
2023-01-28T06:02:18.371Z,7.20
2023-01-28T06:04:45.923Z,6.85
2023-01-28T06:07:13.471Z,7.18
2023-01-28T06:09:43.443Z,6.70
2023-01-28T06:12:11.129Z,7.38
2023-01-28T06:14:52.079Z,8.55
2023-01-28T06:17:40.834Z,7.07
2023-01-28T06:20:17.446Z,6.80
2023-01-28T06:22:47.248Z,8.10
2023-01-28T06:25:14.592Z,7.22
2023-01-28T06:27:41.926Z,7.88
2023-01-28T06:30:09.377Z,7.97
2023-01-28T06:32:36.680Z,8.60
2023-01-28T06:35:04.266Z,7.13
2023-01-28T06:37:31.753Z,7.95
2023-01-28T06:39:59.015Z,8.32
2023-01-28T06:42:26.257Z,7.43
2023-01-28T06:44:53.519Z,7.57
2023-01-28T06:47:20.779Z,8.00
2023-01-28T06:49:48.053Z,7.32
2023-01-28T06:52:15.341Z,10.82
2023-01-28T06:54:42.512Z,9.98
2023-01-28T06:57:09.743Z,8.50
2023-01-28T06:59:37.017Z,8.67
2023-01-28T07:02:04.273Z,7.75
2023-01-28T07:04:32.347Z,9.27
2023-01-28T07:06:59.802Z,8.73
2023-01-28T07:09:27.082Z,10.18
2023-01-28T07:11:54.402Z,8.23
2023-01-28T07:14:21.660Z,8.82
2023-01-28T07:16:48.965Z,8.65
2023-01-28T07:19:16.323Z,9.52
2023-01-28T07:21:43.555Z,10.75
2023-01-28T07:24:10.893Z,9.83
2023-01-28T07:26:38.244Z,8.70
2023-01-28T07:29:05.517Z,9.02
2023-01-28T07:31:33.055Z,12.27
2023-01-28T07:34:00.326Z,9.43
2023-01-28T07:36:27.610Z,9.77
2023-01-28T07:38:54.884Z,10.02
2023-01-28T07:41:22.201Z,10.15
2023-01-28T07:43:49.417Z,10.60
2023-01-28T07:46:18.058Z,9.00
2023-01-28T07:48:45.764Z,9.43
2023-01-28T07:51:12.942Z,10.18
2023-01-28T07:53:40.358Z,15.05
2023-01-28T07:56:07.715Z,13.20
2023-01-28T07:58:34.993Z,13.02
2023-01-28T08:01:02.869Z,48.83
2023-01-28T08:03:30.369Z,32.92
2023-01-28T08:05:58.056Z,16.20
2023-01-28T08:08:27.267Z,9.30
2023-01-28T08:10:54.925Z,10.18
2023-01-28T08:13:22.243Z,9.23
2023-01-28T08:15:49.530Z,9.15
2023-01-28T08:18:17.564Z,8.07
2023-01-28T08:20:46.436Z,8.52
2023-01-28T08:23:18.861Z,7.57
2023-01-28T08:25:46.751Z,7.50
2023-01-28T08:28:14.962Z,7.38
2023-01-28T08:30:42.671Z,8.13
2023-01-28T08:33:11.369Z,7.78
2023-01-28T08:35:38.657Z,7.78
2023-01-28T08:38:06.700Z,7.30
2023-01-28T08:40:34.683Z,7.75
2023-01-28T08:43:02.031Z,7.28
2023-01-28T08:45:29.361Z,6.57
2023-01-28T08:48:00.596Z,7.18
2023-01-28T08:50:29.697Z,6.47
2023-01-28T08:52:57.896Z,6.00
2023-01-28T08:55:25.806Z,5.63
2023-01-28T08:57:53.437Z,6.00
2023-01-28T09:00:21.120Z,5.50
2023-01-28T09:02:48.624Z,5.50
2023-01-28T09:05:15.840Z,4.72
2023-01-28T09:07:43.105Z,5.20
2023-01-28T09:10:10.633Z,6.05
2023-01-28T09:12:37.995Z,8.13
2023-01-28T09:15:05.941Z,6.23
2023-01-28T09:17:33.206Z,3.85
2023-01-28T09:20:00.468Z,5.35
2023-01-28T09:22:27.787Z,4.93
2023-01-28T09:24:55.046Z,5.05
2023-01-28T09:27:23.382Z,3.73
2023-01-28T09:29:50.934Z,3.80
2023-01-28T09:32:18.207Z,3.85
2023-01-28T09:34:45.528Z,3.05
2023-01-28T09:37:12.817Z,3.92
2023-01-28T09:39:40.171Z,2.50
2023-01-28T09:42:13.579Z,5.32
2023-01-28T09:44:44.088Z,2.78
2023-01-28T09:47:25.032Z,1.75
2023-01-28T09:49:53.852Z,2.65
2023-01-28T09:52:22.668Z,2.93
2023-01-28T09:54:51.314Z,3.72
2023-01-28T09:57:25.752Z,2.10
2023-01-28T09:59:53.495Z,2.50
2023-01-28T10:02:27.923Z,2.38
2023-01-28T10:04:55.208Z,2.53
2023-01-28T10:07:28.770Z,2.42
2023-01-28T10:10:05.305Z,2.35
2023-01-28T10:12:45.029Z,2.50
2023-01-28T10:15:12.288Z,3.25
2023-01-28T10:17:44.428Z,2.17
2023-01-28T10:20:25.924Z,3.55
2023-01-28T10:22:57.000Z,2.15
2023-01-28T10:25:30.471Z,1.70
2023-01-28T10:27:57.831Z,2.17
2023-01-28T10:30:26.947Z,3.63
2023-01-28T10:32:57.409Z,1.70
2023-01-28T10:35:24.757Z,1.70
2023-01-28T10:37:54.719Z,6.05
2023-01-28T10:40:21.969Z,2.88
2023-01-28T10:42:49.373Z,1.77
2023-01-28T10:45:21.223Z,2.20
2023-01-28T10:47:51.657Z,2.67
2023-01-28T10:50:21.138Z,2.83
2023-01-28T10:52:53.378Z,3.72
2023-01-28T10:55:20.789Z,1.43
2023-01-28T10:57:48.042Z,4.65
2023-01-28T11:00:21.177Z,8.13
2023-01-28T11:02:49.404Z,4.65
2023-01-28T11:05:21.082Z,2.17
2023-01-28T11:07:49.981Z,3.23
2023-01-28T11:10:26.619Z,1.90
2023-01-28T11:12:57.805Z,1.50
2023-01-28T11:15:25.100Z,1.50
2023-01-28T11:17:56.670Z,4.88
2023-01-28T11:20:25.712Z,2.20
2023-01-28T11:22:53.528Z,4.13
2023-01-28T11:25:38.198Z,4.88
2023-01-28T11:28:16.517Z,2.40
2023-01-28T11:30:43.883Z,2.92
2023-01-28T11:33:21.999Z,2.00
2023-01-28T11:35:56.597Z,5.28
2023-01-28T11:38:24.950Z,1.95
2023-01-28T11:40:53.101Z,4.35
2023-01-28T11:43:22.635Z,1.75
2023-01-28T11:46:05.538Z,1.97
2023-01-28T11:48:42.790Z,1.77
2023-01-28T11:51:22.227Z,3.33
2023-01-28T11:53:57.449Z,2.70
2023-01-28T11:56:33.926Z,1.73
2023-01-28T11:59:19.873Z,5.30
2023-01-28T12:01:47.109Z,2.80
2023-01-28T12:04:23.959Z,2.08
2023-01-28T12:07:12.072Z,3.33
2023-01-28T12:09:45.235Z,4.18
2023-01-28T12:12:18.686Z,8.83
2023-01-28T12:14:52.104Z,2.60
2023-01-28T12:17:26.740Z,3.65
2023-01-28T12:20:06.227Z,3.55
2023-01-28T12:22:33.490Z,1.70
2023-01-28T12:25:00.720Z,3.50
2023-01-28T12:27:46.550Z,5.00
2023-01-28T12:30:22.599Z,3.05
2023-01-28T12:32:52.736Z,4.05
2023-01-28T12:35:25.329Z,5.80
2023-01-28T12:37:52.550Z,3.80
2023-01-28T12:40:38.697Z,7.40
2023-01-28T12:43:12.527Z,4.72
2023-01-28T12:45:41.019Z,4.03
2023-01-28T12:48:21.584Z,4.28
2023-01-28T12:50:51.371Z,2.40
2023-01-28T12:53:37.974Z,3.63
2023-01-28T12:56:19.157Z,4.00
2023-01-28T12:59:07.757Z,2.80
2023-01-28T13:01:35.000Z,5.13
2023-01-28T13:04:10.069Z,6.30
2023-01-28T13:06:56.484Z,5.43
2023-01-28T13:09:26.108Z,5.40
2023-01-28T13:11:55.309Z,5.95
2023-01-28T13:14:24.333Z,2.70
2023-01-28T13:16:51.651Z,3.77
2023-01-28T13:19:18.900Z,2.95
2023-01-28T13:21:49.394Z,2.88
2023-01-28T13:24:17.147Z,3.58
2023-01-28T13:26:49.317Z,5.30
2023-01-28T13:29:25.944Z,3.50
2023-01-28T13:31:54.876Z,6.53
2023-01-28T13:34:33.358Z,3.97
2023-01-28T13:37:19.394Z,14.40
2023-01-28T13:39:49.655Z,3.90
2023-01-28T13:42:23.181Z,5.90
2023-01-28T13:44:50.591Z,4.28
2023-01-28T13:47:38.495Z,2.75
2023-01-28T13:50:08.221Z,4.07
2023-01-28T13:52:44.840Z,4.07
2023-01-28T13:55:12.062Z,6.83
2023-01-28T13:57:48.771Z,8.05
2023-01-28T14:00:26.382Z,3.33
2023-01-28T14:03:03.234Z,4.43
2023-01-28T14:05:49.503Z,3.15
2023-01-28T14:08:19.577Z,6.20
2023-01-28T14:10:46.792Z,3.30
2023-01-28T14:13:23.093Z,5.63
2023-01-28T14:15:56.492Z,3.15
2023-01-28T14:18:23.791Z,3.25
2023-01-28T14:20:52.074Z,5.00
2023-01-28T14:23:22.250Z,2.95
2023-01-28T14:26:08.170Z,5.47
2023-01-28T14:28:42.551Z,4.55
2023-01-28T14:31:13.865Z,4.90
2023-01-28T14:33:41.839Z,6.60
2023-01-28T14:36:11.660Z,5.65
2023-01-28T14:38:43.876Z,2.53
2023-01-28T14:41:17.708Z,2.92
2023-01-28T14:43:45.161Z,2.17
2023-01-28T14:46:12.476Z,2.70
2023-01-28T14:48:46.673Z,2.90
2023-01-28T14:51:23.214Z,7.95
2023-01-28T14:54:08.837Z,4.07
2023-01-28T14:57:00.646Z,3.03
2023-01-28T14:59:34.645Z,2.67
2023-01-28T15:02:04.473Z,4.28
2023-01-28T15:04:33.588Z,2.78
2023-01-28T15:07:36.510Z,11.35
2023-01-28T15:10:04.825Z,18.90
2023-01-28T15:12:34.762Z,8.90
2023-01-28T15:15:20.605Z,5.18
2023-01-28T15:17:49.028Z,4.45
2023-01-28T15:20:18.833Z,8.02
2023-01-28T15:22:46.498Z,14.00
2023-01-28T15:25:18.310Z,8.03
2023-01-28T15:27:45.606Z,10.25
2023-01-28T15:30:29.888Z,8.43
2023-01-28T15:32:58.545Z,8.25
2023-01-28T15:35:26.119Z,6.78
2023-01-28T15:37:53.533Z,5.70
2023-01-28T15:40:21.859Z,6.60
2023-01-28T15:42:49.799Z,12.68
2023-01-28T15:45:25.436Z,3.78
2023-01-28T15:47:53.463Z,4.50
2023-01-28T15:50:25.283Z,5.80
2023-01-28T15:52:55.393Z,4.60
2023-01-28T15:55:31.572Z,4.53
2023-01-28T15:57:58.836Z,5.03
2023-01-28T16:00:26.413Z,4.80
2023-01-28T16:02:55.459Z,5.23
2023-01-28T16:05:31.765Z,7.00
2023-01-28T16:07:59.424Z,7.07
2023-01-28T16:10:28.433Z,8.38
2023-01-28T16:13:07.205Z,5.45
2023-01-28T16:15:34.921Z,5.00
2023-01-28T16:18:03.990Z,5.45
2023-01-28T16:20:31.374Z,5.25
2023-01-28T16:23:00.259Z,5.40
2023-01-28T16:25:32.234Z,5.60
2023-01-28T16:28:00.324Z,5.33
2023-01-28T16:30:28.353Z,8.15
2023-01-28T16:32:55.808Z,5.75
2023-01-28T16:35:24.890Z,4.78
2023-01-28T16:37:52.253Z,11.90
2023-01-28T16:40:21.014Z,12.13
2023-01-28T16:42:51.197Z,6.55
2023-01-28T16:45:19.907Z,5.22
2023-01-28T16:47:47.250Z,5.28
2023-01-28T16:50:15.516Z,4.93
2023-01-28T16:52:43.714Z,5.97
2023-01-28T16:55:15.221Z,5.03
2023-01-28T16:57:43.363Z,6.63
2023-01-28T17:00:19.732Z,5.93
2023-01-28T17:02:47.470Z,7.43
2023-01-28T17:05:18.121Z,8.53
2023-01-28T17:07:48.621Z,5.18
2023-01-28T17:10:16.805Z,6.55
2023-01-28T17:12:44.686Z,8.45
2023-01-28T17:15:12.238Z,8.82
2023-01-28T17:17:39.462Z,8.93
2023-01-28T17:20:07.157Z,7.38
2023-01-28T17:22:34.439Z,6.60
2023-01-28T17:25:01.764Z,5.72
2023-01-28T17:27:29.045Z,6.40
2023-01-28T17:29:56.317Z,6.77
2023-01-28T17:32:23.585Z,6.03
2023-01-28T17:34:50.977Z,8.70
2023-01-28T17:37:18.379Z,10.43
2023-01-28T17:39:45.656Z,7.20
2023-01-28T17:42:12.913Z,6.97
2023-01-28T17:44:40.167Z,8.95
2023-01-28T17:47:07.422Z,7.78
2023-01-28T17:49:34.672Z,8.00
2023-01-28T17:52:01.928Z,7.65
2023-01-28T17:54:29.248Z,9.07
2023-01-28T17:56:56.527Z,9.07
2023-01-28T17:59:25.030Z,7.47
2023-01-28T18:01:54.599Z,10.63
2023-01-28T18:04:21.979Z,7.80
2023-01-28T18:06:51.601Z,12.00
2023-01-28T18:09:19.392Z,9.00
2023-01-28T18:11:46.757Z,7.93
2023-01-28T18:14:14.346Z,8.93
2023-01-28T18:16:41.683Z,11.65
2023-01-28T18:19:10.270Z,8.33
2023-01-28T18:21:52.189Z,14.13
2023-01-28T18:24:20.647Z,13.73
2023-01-28T18:26:48.105Z,10.20
2023-01-28T18:29:20.184Z,10.35
2023-01-28T18:31:48.330Z,8.80
2023-01-28T18:34:15.871Z,8.52
2023-01-28T18:36:43.171Z,8.90
2023-01-28T18:39:17.200Z,9.68
2023-01-28T18:41:44.541Z,10.27
2023-01-28T18:44:12.845Z,10.33
2023-01-28T18:46:40.383Z,13.32
2023-01-28T18:49:07.689Z,11.38
2023-01-28T18:51:34.938Z,11.73
2023-01-28T18:54:03.254Z,14.32
2023-01-28T18:56:30.947Z,9.80
2023-01-28T18:59:03.673Z,8.65
2023-01-28T19:01:31.391Z,10.25
2023-01-28T19:03:59.155Z,9.63
2023-01-28T19:06:28.183Z,10.95
2023-01-28T19:08:59.977Z,12.07
2023-01-28T19:11:28.322Z,14.13
2023-01-28T19:13:55.728Z,11.60
2023-01-28T19:16:23.255Z,10.75
2023-01-28T19:19:00.483Z,11.27
2023-01-28T19:21:28.580Z,11.23
2023-01-28T19:24:00.348Z,12.15
2023-01-28T19:26:28.516Z,10.60
2023-01-28T19:28:56.235Z,12.23
2023-01-28T19:31:24.551Z,9.55
2023-01-28T19:33:56.152Z,11.53
2023-01-28T19:36:23.995Z,11.75
2023-01-28T19:38:51.229Z,10.70
2023-01-28T19:41:19.413Z,12.18
2023-01-28T19:43:46.756Z,12.88
2023-01-28T19:46:15.906Z,12.97
2023-01-28T19:48:43.781Z,13.48
2023-01-28T19:51:11.934Z,13.75
2023-01-28T19:53:40.145Z,15.55
2023-01-28T19:56:08.812Z,16.30
2023-01-28T19:58:40.143Z,13.50
2023-01-28T20:01:08.404Z,14.27
2023-01-28T20:03:35.761Z,13.45
2023-01-28T20:06:04.052Z,14.18
2023-01-28T20:08:31.392Z,14.48
2023-01-28T20:11:09.091Z,15.50
2023-01-28T20:13:37.273Z,13.18
2023-01-28T20:16:05.484Z,15.43
2023-01-28T20:18:33.077Z,17.63
2023-01-28T20:21:00.719Z,14.50
2023-01-28T20:23:28.094Z,19.50
2023-01-28T20:25:56.113Z,16.92
2023-01-28T20:28:23.855Z,18.75
2023-01-28T20:30:51.746Z,16.42
2023-01-28T20:33:19.333Z,15.98
2023-01-28T20:35:46.626Z,16.87
2023-01-28T20:38:14.695Z,16.77
2023-01-28T20:40:42.446Z,16.42
2023-01-28T20:43:10.214Z,18.65
2023-01-28T20:45:37.516Z,16.25
2023-01-28T20:48:04.843Z,16.53
2023-01-28T20:50:32.113Z,16.65
2023-01-28T20:52:59.388Z,19.13
2023-01-28T20:55:28.904Z,15.70
2023-01-28T20:57:56.221Z,16.38
2023-01-28T21:00:23.875Z,31.47
2023-01-28T21:02:51.214Z,16.98
2023-01-28T21:05:18.521Z,18.27
2023-01-28T21:07:45.852Z,19.70
2023-01-28T21:10:13.188Z,17.73
2023-01-28T21:12:40.614Z,18.73
2023-01-28T21:15:08.447Z,18.35
2023-01-28T21:17:35.727Z,17.48
2023-01-28T21:20:03.503Z,19.38
2023-01-28T21:22:30.765Z,18.05
2023-01-28T21:24:58.011Z,17.60
2023-01-28T21:27:25.306Z,18.38
2023-01-28T21:29:52.574Z,20.50
2023-01-28T21:32:23.772Z,17.33
2023-01-28T21:34:51.939Z,19.58
2023-01-28T21:37:22.322Z,18.27
2023-01-28T21:39:50.268Z,18.95
2023-01-28T21:42:18.553Z,18.42
2023-01-28T21:44:47.103Z,16.80
2023-01-28T21:47:15.815Z,23.08
2023-01-28T21:49:43.183Z,20.50
2023-01-28T21:52:10.461Z,17.45
2023-01-28T21:54:37.672Z,19.50
2023-01-28T21:57:04.974Z,19.00
2023-01-28T21:59:32.625Z,19.35
2023-01-28T22:01:59.986Z,19.60
2023-01-28T22:04:31.550Z,24.33
2023-01-28T22:06:59.118Z,20.70
2023-01-28T22:09:26.942Z,21.17
2023-01-28T22:11:54.299Z,25.45
2023-01-28T22:14:21.663Z,24.80
2023-01-28T22:16:49.017Z,20.85
2023-01-28T22:19:16.620Z,25.05
2023-01-28T22:21:44.871Z,20.73
2023-01-28T22:24:17.360Z,21.02
2023-01-28T22:26:45.219Z,16.57
2023-01-28T22:29:13.314Z,20.27
2023-01-28T22:31:40.866Z,20.45
2023-01-28T22:34:08.535Z,18.92
2023-01-28T22:36:36.236Z,19.38
2023-01-28T22:39:04.898Z,20.20
2023-01-28T22:41:32.462Z,22.30
2023-01-28T22:44:03.785Z,20.90
2023-01-28T22:46:33.184Z,19.85
2023-01-28T22:49:00.658Z,20.17
2023-01-28T22:51:29.412Z,22.30
2023-01-28T22:53:57.089Z,20.90
2023-01-28T22:56:25.524Z,22.83
2023-01-28T22:58:56.664Z,20.50
2023-01-28T23:01:24.177Z,20.85
2023-01-28T23:03:51.681Z,21.27
2023-01-28T23:06:20.089Z,22.80
2023-01-28T23:08:47.348Z,21.48
2023-01-28T23:11:15.204Z,22.70
2023-01-28T23:14:02.640Z,21.60
2023-01-28T23:16:49.524Z,22.43
2023-01-28T23:19:36.202Z,20.30
2023-01-28T23:22:21.924Z,21.83
2023-01-28T23:24:49.287Z,22.10
2023-01-28T23:27:16.844Z,23.88
2023-01-28T23:29:44.650Z,19.10
2023-01-28T23:32:11.995Z,20.92
2023-01-28T23:34:41.157Z,23.40
2023-01-28T23:37:09.571Z,25.08
2023-01-28T23:39:36.865Z,22.67
2023-01-28T23:42:10.994Z,20.43
2023-01-28T23:44:38.280Z,20.67
2023-01-28T23:47:05.648Z,24.60
2023-01-28T23:49:33.002Z,22.45
2023-01-28T23:52:00.511Z,19.55
2023-01-28T23:54:27.768Z,20.37
2023-01-28T23:56:55.035Z,21.08
2023-01-28T23:59:22.430Z,20.77
